sensor_id;sensor_type;location;lat;lon;timestamp;P1;durP1;ratioP1;P2;durP2;ratioP2
52208;SDS011;38507;53.132;6.394;2022-07-23T00:01:22;12.60;;;3.53;;
52208;SDS011;38507;53.132;6.394;2022-07-23T00:03:48;7.15;;;3.95;;
52208;SDS011;38507;53.132;6.394;2022-07-23T00:06:15;6.85;;;3.75;;
52208;SDS011;38507;53.132;6.394;2022-07-23T00:08:41;10.43;;;3.38;;
52208;SDS011;38507;53.132;6.394;2022-07-23T00:11:07;9.73;;;3.60;;
52208;SDS011;38507;53.132;6.394;2022-07-23T00:13:33;4.93;;;3.58;;
52208;SDS011;38507;53.132;6.394;2022-07-23T00:15:58;6.45;;;3.58;;
52208;SDS011;38507;53.132;6.394;2022-07-23T00:18:25;5.25;;;3.35;;
52208;SDS011;38507;53.132;6.394;2022-07-23T00:20:50;6.82;;;3.72;;
52208;SDS011;38507;53.132;6.394;2022-07-23T00:23:16;7.82;;;4.03;;
52208;SDS011;38507;53.132;6.394;2022-07-23T00:25:42;6.18;;;4.05;;
52208;SDS011;38507;53.132;6.394;2022-07-23T00:28:09;9.45;;;4.85;;
52208;SDS011;38507;53.132;6.394;2022-07-23T00:30:35;7.75;;;4.40;;
52208;SDS011;38507;53.132;6.394;2022-07-23T00:33:03;7.90;;;4.80;;
52208;SDS011;38507;53.132;6.394;2022-07-23T00:35:31;12.38;;;4.97;;
52208;SDS011;38507;53.132;6.394;2022-07-23T00:37:59;8.77;;;4.57;;
52208;SDS011;38507;53.132;6.394;2022-07-23T00:40:25;10.18;;;5.28;;
52208;SDS011;38507;53.132;6.394;2022-07-23T00:42:54;6.00;;;4.40;;
52208;SDS011;38507;53.132;6.394;2022-07-23T00:45:20;7.55;;;4.65;;
52208;SDS011;38507;53.132;6.394;2022-07-23T00:47:46;6.20;;;4.53;;
52208;SDS011;38507;53.132;6.394;2022-07-23T00:50:13;12.93;;;5.85;;
52208;SDS011;38507;53.132;6.394;2022-07-23T00:52:39;5.97;;;4.60;;
52208;SDS011;38507;53.132;6.394;2022-07-23T00:55:05;10.80;;;5.07;;
52208;SDS011;38507;53.132;6.394;2022-07-23T00:57:33;8.45;;;4.53;;
52208;SDS011;38507;53.132;6.394;2022-07-23T00:59:59;11.32;;;4.15;;
52208;SDS011;38507;53.132;6.394;2022-07-23T01:02:25;9.32;;;3.95;;
52208;SDS011;38507;53.132;6.394;2022-07-23T01:04:51;11.52;;;4.30;;
52208;SDS011;38507;53.132;6.394;2022-07-23T01:07:17;10.10;;;3.88;;
52208;SDS011;38507;53.132;6.394;2022-07-23T01:09:44;9.80;;;3.90;;
52208;SDS011;38507;53.132;6.394;2022-07-23T01:12:10;7.90;;;4.20;;
52208;SDS011;38507;53.132;6.394;2022-07-23T01:14:36;6.07;;;4.05;;
52208;SDS011;38507;53.132;6.394;2022-07-23T01:17:02;7.00;;;3.95;;
52208;SDS011;38507;53.132;6.394;2022-07-23T01:19:28;13.73;;;3.95;;
52208;SDS011;38507;53.132;6.394;2022-07-23T01:21:53;12.57;;;3.75;;
52208;SDS011;38507;53.132;6.394;2022-07-23T01:24:21;6.50;;;3.83;;
52208;SDS011;38507;53.132;6.394;2022-07-23T01:26:47;9.25;;;4.20;;
52208;SDS011;38507;53.132;6.394;2022-07-23T01:29:14;9.95;;;3.65;;
52208;SDS011;38507;53.132;6.394;2022-07-23T01:31:40;9.68;;;4.03;;
52208;SDS011;38507;53.132;6.394;2022-07-23T01:34:06;8.80;;;4.43;;
52208;SDS011;38507;53.132;6.394;2022-07-23T01:36:35;5.75;;;3.42;;
52208;SDS011;38507;53.132;6.394;2022-07-23T01:39:05;8.40;;;3.72;;
52208;SDS011;38507;53.132;6.394;2022-07-23T01:41:32;13.75;;;4.15;;
52208;SDS011;38507;53.132;6.394;2022-07-23T01:43:58;6.20;;;3.75;;
52208;SDS011;38507;53.132;6.394;2022-07-23T01:46:24;6.60;;;3.72;;
52208;SDS011;38507;53.132;6.394;2022-07-23T01:48:49;6.35;;;4.43;;
52208;SDS011;38507;53.132;6.394;2022-07-23T01:51:15;10.20;;;3.90;;
52208;SDS011;38507;53.132;6.394;2022-07-23T01:53:41;11.90;;;4.03;;
52208;SDS011;38507;53.132;6.394;2022-07-23T01:56:06;8.00;;;4.15;;
52208;SDS011;38507;53.132;6.394;2022-07-23T01:58:32;8.23;;;3.97;;
52208;SDS011;38507;53.132;6.394;2022-07-23T02:00:58;8.13;;;3.85;;
52208;SDS011;38507;53.132;6.394;2022-07-23T02:03:24;7.10;;;3.53;;
52208;SDS011;38507;53.132;6.394;2022-07-23T02:05:50;11.07;;;4.15;;
52208;SDS011;38507;53.132;6.394;2022-07-23T02:08:16;9.35;;;4.43;;
52208;SDS011;38507;53.132;6.394;2022-07-23T02:10:42;9.32;;;4.25;;
52208;SDS011;38507;53.132;6.394;2022-07-23T02:13:08;5.95;;;3.60;;
52208;SDS011;38507;53.132;6.394;2022-07-23T02:15:34;9.10;;;3.40;;
52208;SDS011;38507;53.132;6.394;2022-07-23T02:17:59;7.10;;;3.47;;
52208;SDS011;38507;53.132;6.394;2022-07-23T02:20:25;8.20;;;3.70;;
52208;SDS011;38507;53.132;6.394;2022-07-23T02:22:51;7.05;;;4.00;;
52208;SDS011;38507;53.132;6.394;2022-07-23T02:25:17;8.38;;;4.38;;
52208;SDS011;38507;53.132;6.394;2022-07-23T02:27:43;7.30;;;3.67;;
52208;SDS011;38507;53.132;6.394;2022-07-23T02:30:08;5.90;;;3.42;;
52208;SDS011;38507;53.132;6.394;2022-07-23T02:32:35;9.65;;;4.45;;
52208;SDS011;38507;53.132;6.394;2022-07-23T02:35:01;8.75;;;4.40;;
52208;SDS011;38507;53.132;6.394;2022-07-23T02:37:27;7.18;;;4.75;;
52208;SDS011;38507;53.132;6.394;2022-07-23T02:39:53;10.55;;;5.10;;
52208;SDS011;38507;53.132;6.394;2022-07-23T02:42:19;12.57;;;5.55;;
52208;SDS011;38507;53.132;6.394;2022-07-23T02:44:45;9.75;;;5.15;;
52208;SDS011;38507;53.132;6.394;2022-07-23T02:47:11;9.63;;;5.30;;
52208;SDS011;38507;53.132;6.394;2022-07-23T02:49:36;7.80;;;4.57;;
52208;SDS011;38507;53.132;6.394;2022-07-23T02:52:02;9.77;;;5.43;;
52208;SDS011;38507;53.132;6.394;2022-07-23T02:54:28;7.10;;;5.03;;
52208;SDS011;38507;53.132;6.394;2022-07-23T02:56:54;14.63;;;6.22;;
52208;SDS011;38507;53.132;6.394;2022-07-23T02:59:19;11.38;;;5.60;;
52208;SDS011;38507;53.132;6.394;2022-07-23T03:01:45;13.35;;;4.97;;
52208;SDS011;38507;53.132;6.394;2022-07-23T03:04:11;8.90;;;5.05;;
52208;SDS011;38507;53.132;6.394;2022-07-23T03:06:37;10.60;;;4.65;;
52208;SDS011;38507;53.132;6.394;2022-07-23T03:09:03;18.05;;;5.55;;
52208;SDS011;38507;53.132;6.394;2022-07-23T03:11:30;8.52;;;4.78;;
52208;SDS011;38507;53.132;6.394;2022-07-23T03:13:55;6.38;;;4.90;;
52208;SDS011;38507;53.132;6.394;2022-07-23T03:16:21;6.90;;;4.57;;
52208;SDS011;38507;53.132;6.394;2022-07-23T03:18:47;12.15;;;5.57;;
52208;SDS011;38507;53.132;6.394;2022-07-23T03:21:13;8.18;;;4.22;;
52208;SDS011;38507;53.132;6.394;2022-07-23T03:23:38;10.32;;;4.53;;
52208;SDS011;38507;53.132;6.394;2022-07-23T03:26:04;13.02;;;4.95;;
52208;SDS011;38507;53.132;6.394;2022-07-23T03:28:30;14.10;;;5.13;;
52208;SDS011;38507;53.132;6.394;2022-07-23T03:30:56;13.75;;;4.82;;
52208;SDS011;38507;53.132;6.394;2022-07-23T03:33:22;10.98;;;4.50;;
52208;SDS011;38507;53.132;6.394;2022-07-23T03:35:48;8.13;;;4.10;;
52208;SDS011;38507;53.132;6.394;2022-07-23T03:38:14;5.05;;;3.75;;
52208;SDS011;38507;53.132;6.394;2022-07-23T03:40:40;9.00;;;4.55;;
52208;SDS011;38507;53.132;6.394;2022-07-23T03:43:06;8.38;;;4.70;;
52208;SDS011;38507;53.132;6.394;2022-07-23T03:45:32;9.25;;;4.88;;
52208;SDS011;38507;53.132;6.394;2022-07-23T03:47:59;7.97;;;4.85;;
52208;SDS011;38507;53.132;6.394;2022-07-23T03:50:25;8.73;;;4.00;;
52208;SDS011;38507;53.132;6.394;2022-07-23T03:52:51;9.63;;;3.90;;
52208;SDS011;38507;53.132;6.394;2022-07-23T03:55:17;8.60;;;4.72;;
52208;SDS011;38507;53.132;6.394;2022-07-23T03:57:42;15.77;;;4.95;;
52208;SDS011;38507;53.132;6.394;2022-07-23T04:00:09;12.80;;;4.45;;
52208;SDS011;38507;53.132;6.394;2022-07-23T04:02:36;13.93;;;4.63;;
52208;SDS011;38507;53.132;6.394;2022-07-23T04:05:02;17.33;;;4.07;;
52208;SDS011;38507;53.132;6.394;2022-07-23T04:07:29;13.55;;;3.97;;
52208;SDS011;38507;53.132;6.394;2022-07-23T04:09:54;8.70;;;3.60;;
52208;SDS011;38507;53.132;6.394;2022-07-23T04:12:20;7.43;;;3.45;;
52208;SDS011;38507;53.132;6.394;2022-07-23T04:14:46;6.70;;;3.50;;
52208;SDS011;38507;53.132;6.394;2022-07-23T04:17:11;11.35;;;3.90;;
52208;SDS011;38507;53.132;6.394;2022-07-23T04:19:37;13.75;;;3.55;;
52208;SDS011;38507;53.132;6.394;2022-07-23T04:22:06;10.60;;;3.67;;
52208;SDS011;38507;53.132;6.394;2022-07-23T04:24:33;6.53;;;3.38;;
52208;SDS011;38507;53.132;6.394;2022-07-23T04:26:59;11.75;;;3.70;;
52208;SDS011;38507;53.132;6.394;2022-07-23T04:29:25;7.25;;;3.42;;
52208;SDS011;38507;53.132;6.394;2022-07-23T04:31:51;7.32;;;3.83;;
52208;SDS011;38507;53.132;6.394;2022-07-23T04:34:16;9.02;;;3.80;;
52208;SDS011;38507;53.132;6.394;2022-07-23T04:36:42;10.93;;;4.40;;
52208;SDS011;38507;53.132;6.394;2022-07-23T04:39:08;10.00;;;4.63;;
52208;SDS011;38507;53.132;6.394;2022-07-23T04:41:33;15.55;;;5.07;;
52208;SDS011;38507;53.132;6.394;2022-07-23T04:43:59;17.23;;;5.80;;
52208;SDS011;38507;53.132;6.394;2022-07-23T04:46:26;15.85;;;5.55;;
52208;SDS011;38507;53.132;6.394;2022-07-23T04:48:51;14.45;;;5.85;;
52208;SDS011;38507;53.132;6.394;2022-07-23T04:51:17;11.80;;;5.40;;
52208;SDS011;38507;53.132;6.394;2022-07-23T04:53:43;8.57;;;5.07;;
52208;SDS011;38507;53.132;6.394;2022-07-23T04:56:08;18.95;;;5.53;;
52208;SDS011;38507;53.132;6.394;2022-07-23T04:58:34;12.18;;;4.88;;
52208;SDS011;38507;53.132;6.394;2022-07-23T05:01:00;13.55;;;5.35;;
52208;SDS011;38507;53.132;6.394;2022-07-23T05:03:26;9.80;;;4.50;;
52208;SDS011;38507;53.132;6.394;2022-07-23T05:05:52;12.07;;;5.55;;
52208;SDS011;38507;53.132;6.394;2022-07-23T05:08:17;13.88;;;5.30;;
52208;SDS011;38507;53.132;6.394;2022-07-23T05:10:43;13.50;;;5.63;;
52208;SDS011;38507;53.132;6.394;2022-07-23T05:13:09;10.80;;;5.55;;
52208;SDS011;38507;53.132;6.394;2022-07-23T05:15:34;11.90;;;5.43;;
52208;SDS011;38507;53.132;6.394;2022-07-23T05:18:00;16.20;;;5.43;;
52208;SDS011;38507;53.132;6.394;2022-07-23T05:20:26;18.15;;;6.07;;
52208;SDS011;38507;53.132;6.394;2022-07-23T05:22:51;13.32;;;5.78;;
52208;SDS011;38507;53.132;6.394;2022-07-23T05:25:17;12.52;;;5.32;;
52208;SDS011;38507;53.132;6.394;2022-07-23T05:27:43;15.00;;;4.93;;
52208;SDS011;38507;53.132;6.394;2022-07-23T05:30:08;19.25;;;7.32;;
52208;SDS011;38507;53.132;6.394;2022-07-23T05:32:35;10.95;;;6.10;;
52208;SDS011;38507;53.132;6.394;2022-07-23T05:35:02;26.17;;;6.80;;
52208;SDS011;38507;53.132;6.394;2022-07-23T05:37:28;12.40;;;5.97;;
52208;SDS011;38507;53.132;6.394;2022-07-23T05:39:54;13.23;;;5.70;;
52208;SDS011;38507;53.132;6.394;2022-07-23T05:42:20;11.13;;;5.50;;
52208;SDS011;38507;53.132;6.394;2022-07-23T05:44:45;11.27;;;5.65;;
52208;SDS011;38507;53.132;6.394;2022-07-23T05:47:11;9.05;;;5.28;;
52208;SDS011;38507;53.132;6.394;2022-07-23T05:49:37;11.00;;;5.97;;
52208;SDS011;38507;53.132;6.394;2022-07-23T05:52:04;13.95;;;5.55;;
52208;SDS011;38507;53.132;6.394;2022-07-23T05:54:30;15.38;;;5.15;;
52208;SDS011;38507;53.132;6.394;2022-07-23T05:56:56;8.95;;;5.00;;
52208;SDS011;38507;53.132;6.394;2022-07-23T05:59:21;8.35;;;4.82;;
52208;SDS011;38507;53.132;6.394;2022-07-23T06:01:47;9.95;;;3.70;;
52208;SDS011;38507;53.132;6.394;2022-07-23T06:04:13;6.97;;;3.90;;
52208;SDS011;38507;53.132;6.394;2022-07-23T06:06:38;11.18;;;3.67;;
52208;SDS011;38507;53.132;6.394;2022-07-23T06:09:04;13.38;;;3.30;;
52208;SDS011;38507;53.132;6.394;2022-07-23T06:11:29;6.55;;;3.28;;
52208;SDS011;38507;53.132;6.394;2022-07-23T06:13:55;7.22;;;3.15;;
52208;SDS011;38507;53.132;6.394;2022-07-23T06:16:21;5.07;;;2.53;;
52208;SDS011;38507;53.132;6.394;2022-07-23T06:18:46;4.32;;;2.20;;
52208;SDS011;38507;53.132;6.394;2022-07-23T06:21:12;10.75;;;2.45;;
52208;SDS011;38507;53.132;6.394;2022-07-23T06:23:37;5.30;;;1.90;;
52208;SDS011;38507;53.132;6.394;2022-07-23T06:26:03;3.17;;;1.40;;
52208;SDS011;38507;53.132;6.394;2022-07-23T06:28:29;4.88;;;1.50;;
52208;SDS011;38507;53.132;6.394;2022-07-23T06:30:54;4.90;;;1.40;;
52208;SDS011;38507;53.132;6.394;2022-07-23T06:33:20;6.57;;;1.65;;
52208;SDS011;38507;53.132;6.394;2022-07-23T06:35:45;21.45;;;1.50;;
52208;SDS011;38507;53.132;6.394;2022-07-23T06:38:11;6.30;;;1.25;;
52208;SDS011;38507;53.132;6.394;2022-07-23T06:40:37;5.43;;;1.00;;
52208;SDS011;38507;53.132;6.394;2022-07-23T06:43:03;4.82;;;1.40;;
52208;SDS011;38507;53.132;6.394;2022-07-23T06:45:29;2.10;;;1.00;;
52208;SDS011;38507;53.132;6.394;2022-07-23T06:47:54;3.70;;;1.10;;
52208;SDS011;38507;53.132;6.394;2022-07-23T06:50:20;4.20;;;0.90;;
52208;SDS011;38507;53.132;6.394;2022-07-23T06:52:46;5.63;;;1.08;;
52208;SDS011;38507;53.132;6.394;2022-07-23T06:55:11;4.65;;;0.80;;
52208;SDS011;38507;53.132;6.394;2022-07-23T06:57:37;2.20;;;0.70;;
52208;SDS011;38507;53.132;6.394;2022-07-23T07:00:03;1.73;;;0.50;;
52208;SDS011;38507;53.132;6.394;2022-07-23T07:02:30;3.15;;;0.70;;
52208;SDS011;38507;53.132;6.394;2022-07-23T07:04:59;4.60;;;0.85;;
52208;SDS011;38507;53.132;6.394;2022-07-23T07:07:24;1.75;;;0.60;;
52208;SDS011;38507;53.132;6.394;2022-07-23T07:09:50;1.88;;;0.50;;
52208;SDS011;38507;53.132;6.394;2022-07-23T07:12:16;3.53;;;0.70;;
52208;SDS011;38507;53.132;6.394;2022-07-23T07:14:41;1.05;;;0.50;;
52208;SDS011;38507;53.132;6.394;2022-07-23T07:17:07;2.70;;;0.40;;
52208;SDS011;38507;53.132;6.394;2022-07-23T07:19:33;0.80;;;0.32;;
52208;SDS011;38507;53.132;6.394;2022-07-23T07:21:59;3.10;;;0.47;;
52208;SDS011;38507;53.132;6.394;2022-07-23T07:24:24;3.45;;;0.68;;
52208;SDS011;38507;53.132;6.394;2022-07-23T07:26:50;2.67;;;0.45;;
52208;SDS011;38507;53.132;6.394;2022-07-23T07:29:15;1.73;;;0.35;;
52208;SDS011;38507;53.132;6.394;2022-07-23T07:31:41;3.13;;;0.52;;
52208;SDS011;38507;53.132;6.394;2022-07-23T07:34:07;4.88;;;0.30;;
52208;SDS011;38507;53.132;6.394;2022-07-23T07:36:32;1.75;;;0.25;;
52208;SDS011;38507;53.132;6.394;2022-07-23T07:38:58;2.20;;;0.50;;
52208;SDS011;38507;53.132;6.394;2022-07-23T07:41:24;2.58;;;0.40;;
52208;SDS011;38507;53.132;6.394;2022-07-23T07:43:51;1.13;;;0.30;;
52208;SDS011;38507;53.132;6.394;2022-07-23T07:46:17;1.63;;;0.38;;
52208;SDS011;38507;53.132;6.394;2022-07-23T07:48:42;2.08;;;0.40;;
52208;SDS011;38507;53.132;6.394;2022-07-23T07:51:08;1.30;;;0.40;;
52208;SDS011;38507;53.132;6.394;2022-07-23T07:53:34;1.52;;;0.40;;
52208;SDS011;38507;53.132;6.394;2022-07-23T07:55:59;3.17;;;0.30;;
52208;SDS011;38507;53.132;6.394;2022-07-23T07:58:25;3.45;;;0.43;;
52208;SDS011;38507;53.132;6.394;2022-07-23T08:00:51;1.27;;;0.30;;
52208;SDS011;38507;53.132;6.394;2022-07-23T08:03:17;3.83;;;0.55;;
52208;SDS011;38507;53.132;6.394;2022-07-23T08:05:42;1.30;;;0.40;;
52208;SDS011;38507;53.132;6.394;2022-07-23T08:08:08;2.90;;;0.40;;
52208;SDS011;38507;53.132;6.394;2022-07-23T08:10:39;2.50;;;0.40;;
52208;SDS011;38507;53.132;6.394;2022-07-23T08:13:06;3.03;;;0.68;;
52208;SDS011;38507;53.132;6.394;2022-07-23T08:15:32;2.97;;;0.57;;
52208;SDS011;38507;53.132;6.394;2022-07-23T08:17:58;1.02;;;0.40;;
52208;SDS011;38507;53.132;6.394;2022-07-23T08:20:24;0.93;;;0.30;;
52208;SDS011;38507;53.132;6.394;2022-07-23T08:22:53;3.78;;;0.60;;
52208;SDS011;38507;53.132;6.394;2022-07-23T08:25:22;2.20;;;0.47;;
52208;SDS011;38507;53.132;6.394;2022-07-23T08:27:50;0.88;;;0.40;;
52208;SDS011;38507;53.132;6.394;2022-07-23T08:30:16;2.78;;;0.30;;
52208;SDS011;38507;53.132;6.394;2022-07-23T08:32:50;1.85;;;0.30;;
52208;SDS011;38507;53.132;6.394;2022-07-23T08:35:17;0.50;;;0.30;;
52208;SDS011;38507;53.132;6.394;2022-07-23T08:37:47;1.85;;;0.40;;
52208;SDS011;38507;53.132;6.394;2022-07-23T08:40:12;1.45;;;0.38;;
52208;SDS011;38507;53.132;6.394;2022-07-23T08:42:38;2.33;;;0.50;;
52208;SDS011;38507;53.132;6.394;2022-07-23T08:45:04;2.20;;;0.45;;
52208;SDS011;38507;53.132;6.394;2022-07-23T08:47:33;2.58;;;0.40;;
52208;SDS011;38507;53.132;6.394;2022-07-23T08:50:01;2.92;;;1.02;;
52208;SDS011;38507;53.132;6.394;2022-07-23T08:52:27;3.25;;;0.55;;
52208;SDS011;38507;53.132;6.394;2022-07-23T08:54:55;1.45;;;0.60;;
52208;SDS011;38507;53.132;6.394;2022-07-23T08:57:22;3.75;;;0.40;;
52208;SDS011;38507;53.132;6.394;2022-07-23T08:59:47;3.95;;;0.70;;
52208;SDS011;38507;53.132;6.394;2022-07-23T09:02:13;3.58;;;0.60;;
52208;SDS011;38507;53.132;6.394;2022-07-23T09:04:39;1.08;;;0.30;;
52208;SDS011;38507;53.132;6.394;2022-07-23T09:07:04;3.03;;;0.40;;
52208;SDS011;38507;53.132;6.394;2022-07-23T09:09:30;2.03;;;0.35;;
52208;SDS011;38507;53.132;6.394;2022-07-23T09:12:06;1.85;;;0.30;;
52208;SDS011;38507;53.132;6.394;2022-07-23T09:14:43;2.78;;;0.60;;
52208;SDS011;38507;53.132;6.394;2022-07-23T09:17:16;2.80;;;0.60;;
52208;SDS011;38507;53.132;6.394;2022-07-23T09:19:43;2.58;;;0.55;;
52208;SDS011;38507;53.132;6.394;2022-07-23T09:30:22;2.25;;;0.50;;
52208;SDS011;38507;53.132;6.394;2022-07-23T09:35:46;3.83;;;0.40;;
52208;SDS011;38507;53.132;6.394;2022-07-23T09:38:12;2.92;;;0.50;;
52208;SDS011;38507;53.132;6.394;2022-07-23T09:40:38;5.43;;;0.63;;
52208;SDS011;38507;53.132;6.394;2022-07-23T09:43:04;0.85;;;0.32;;
52208;SDS011;38507;53.132;6.394;2022-07-23T09:45:29;0.57;;;0.28;;
52208;SDS011;38507;53.132;6.394;2022-07-23T09:48:14;2.38;;;0.50;;
52208;SDS011;38507;53.132;6.394;2022-07-23T09:50:41;2.95;;;0.43;;
52208;SDS011;38507;53.132;6.394;2022-07-23T09:53:08;2.92;;;0.63;;
52208;SDS011;38507;53.132;6.394;2022-07-23T09:55:35;7.63;;;0.73;;
52208;SDS011;38507;53.132;6.394;2022-07-23T09:58:05;1.65;;;0.32;;
52208;SDS011;38507;53.132;6.394;2022-07-23T10:00:37;4.20;;;0.80;;
52208;SDS011;38507;53.132;6.394;2022-07-23T10:03:04;3.47;;;0.50;;
52208;SDS011;38507;53.132;6.394;2022-07-23T10:05:31;1.60;;;0.47;;
52208;SDS011;38507;53.132;6.394;2022-07-23T10:08:00;3.33;;;0.60;;
52208;SDS011;38507;53.132;6.394;2022-07-23T10:10:27;4.07;;;0.60;;
52208;SDS011;38507;53.132;6.394;2022-07-23T10:12:54;2.55;;;0.60;;
52208;SDS011;38507;53.132;6.394;2022-07-23T10:15:40;3.55;;;0.30;;
52208;SDS011;38507;53.132;6.394;2022-07-23T10:18:07;3.58;;;0.60;;
52208;SDS011;38507;53.132;6.394;2022-07-23T10:20:37;3.03;;;0.55;;
52208;SDS011;38507;53.132;6.394;2022-07-23T10:31:14;2.72;;;0.60;;
52208;SDS011;38507;53.132;6.394;2022-07-23T10:33:51;1.48;;;0.65;;
52208;SDS011;38507;53.132;6.394;2022-07-23T10:36:42;6.65;;;1.20;;
52208;SDS011;38507;53.132;6.394;2022-07-23T10:39:19;2.33;;;0.50;;
52208;SDS011;38507;53.132;6.394;2022-07-23T10:41:49;3.28;;;0.65;;
52208;SDS011;38507;53.132;6.394;2022-07-23T10:44:17;3.60;;;0.65;;
52208;SDS011;38507;53.132;6.394;2022-07-23T10:49:47;2.40;;;0.70;;
52208;SDS011;38507;53.132;6.394;2022-07-23T10:54:48;4.53;;;0.88;;
52208;SDS011;38507;53.132;6.394;2022-07-23T10:57:25;5.55;;;0.90;;
52208;SDS011;38507;53.132;6.394;2022-07-23T11:02:37;2.28;;;0.57;;
52208;SDS011;38507;53.132;6.394;2022-07-23T11:05:06;4.25;;;1.00;;
52208;SDS011;38507;53.132;6.394;2022-07-23T11:07:36;1.85;;;0.90;;
52208;SDS011;38507;53.132;6.394;2022-07-23T11:10:32;0.88;;;0.60;;
52208;SDS011;38507;53.132;6.394;2022-07-23T11:32:07;1.95;;;0.60;;
52208;SDS011;38507;53.132;6.394;2022-07-23T11:34:43;2.72;;;0.80;;
52208;SDS011;38507;53.132;6.394;2022-07-23T11:37:32;3.97;;;0.70;;
52208;SDS011;38507;53.132;6.394;2022-07-23T11:40:04;2.83;;;0.75;;
52208;SDS011;38507;53.132;6.394;2022-07-23T11:42:36;2.33;;;0.95;;
52208;SDS011;38507;53.132;6.394;2022-07-23T11:45:16;5.28;;;0.77;;
52208;SDS011;38507;53.132;6.394;2022-07-23T11:47:41;2.35;;;0.52;;
52208;SDS011;38507;53.132;6.394;2022-07-23T11:50:07;3.17;;;1.00;;
52208;SDS011;38507;53.132;6.394;2022-07-23T11:52:33;2.95;;;0.80;;
52208;SDS011;38507;53.132;6.394;2022-07-23T11:55:00;3.28;;;0.80;;
52208;SDS011;38507;53.132;6.394;2022-07-23T11:57:29;2.53;;;0.85;;
52208;SDS011;38507;53.132;6.394;2022-07-23T11:59:57;1.73;;;0.68;;
52208;SDS011;38507;53.132;6.394;2022-07-23T12:02:41;3.70;;;0.90;;
52208;SDS011;38507;53.132;6.394;2022-07-23T12:05:15;3.72;;;1.02;;
52208;SDS011;38507;53.132;6.394;2022-07-23T12:07:46;2.95;;;1.20;;
52208;SDS011;38507;53.132;6.394;2022-07-23T12:10:34;4.80;;;1.13;;
52208;SDS011;38507;53.132;6.394;2022-07-23T12:13:10;2.97;;;0.70;;
52208;SDS011;38507;53.132;6.394;2022-07-23T12:15:49;2.58;;;0.80;;
52208;SDS011;38507;53.132;6.394;2022-07-23T12:18:18;4.95;;;0.90;;
52208;SDS011;38507;53.132;6.394;2022-07-23T12:20:46;3.55;;;1.00;;
52208;SDS011;38507;53.132;6.394;2022-07-23T12:23:15;2.20;;;1.10;;
52208;SDS011;38507;53.132;6.394;2022-07-23T12:25:43;1.50;;;0.80;;
52208;SDS011;38507;53.132;6.394;2022-07-23T12:28:11;3.78;;;0.85;;
52208;SDS011;38507;53.132;6.394;2022-07-23T12:30:49;2.83;;;0.82;;
52208;SDS011;38507;53.132;6.394;2022-07-23T12:33:24;5.22;;;0.95;;
52208;SDS011;38507;53.132;6.394;2022-07-23T12:35:58;3.63;;;1.10;;
52208;SDS011;38507;53.132;6.394;2022-07-23T12:38:25;3.17;;;0.68;;
52208;SDS011;38507;53.132;6.394;2022-07-23T12:40:53;2.85;;;0.90;;
52208;SDS011;38507;53.132;6.394;2022-07-23T12:43:21;2.67;;;0.73;;
52208;SDS011;38507;53.132;6.394;2022-07-23T12:48:37;2.53;;;0.75;;
52208;SDS011;38507;53.132;6.394;2022-07-23T12:51:18;1.85;;;0.68;;
52208;SDS011;38507;53.132;6.394;2022-07-23T12:53:49;2.63;;;0.60;;
52208;SDS011;38507;53.132;6.394;2022-07-23T12:56:18;1.83;;;0.80;;
52208;SDS011;38507;53.132;6.394;2022-07-23T12:58:48;2.33;;;0.77;;
52208;SDS011;38507;53.132;6.394;2022-07-23T13:01:44;4.57;;;1.13;;
52208;SDS011;38507;53.132;6.394;2022-07-23T13:04:23;8.23;;;0.73;;
52208;SDS011;38507;53.132;6.394;2022-07-23T13:06:51;2.22;;;0.70;;
52208;SDS011;38507;53.132;6.394;2022-07-23T13:09:26;3.72;;;0.63;;
52208;SDS011;38507;53.132;6.394;2022-07-23T13:11:54;4.40;;;1.25;;
52208;SDS011;38507;53.132;6.394;2022-07-23T13:14:21;2.20;;;0.57;;
52208;SDS011;38507;53.132;6.394;2022-07-23T13:16:48;4.55;;;0.80;;
52208;SDS011;38507;53.132;6.394;2022-07-23T13:19:15;6.78;;;0.90;;
52208;SDS011;38507;53.132;6.394;2022-07-23T13:21:42;3.13;;;0.65;;
52208;SDS011;38507;53.132;6.394;2022-07-23T13:24:08;7.60;;;0.73;;
52208;SDS011;38507;53.132;6.394;2022-07-23T13:26:35;1.40;;;0.60;;
52208;SDS011;38507;53.132;6.394;2022-07-23T13:29:00;2.13;;;0.70;;
52208;SDS011;38507;53.132;6.394;2022-07-23T13:31:26;5.47;;;0.60;;
52208;SDS011;38507;53.132;6.394;2022-07-23T13:33:52;2.13;;;0.70;;
52208;SDS011;38507;53.132;6.394;2022-07-23T13:36:17;1.83;;;0.60;;
52208;SDS011;38507;53.132;6.394;2022-07-23T13:38:43;0.80;;;0.52;;
52208;SDS011;38507;53.132;6.394;2022-07-23T13:41:09;2.28;;;0.52;;
52208;SDS011;38507;53.132;6.394;2022-07-23T13:43:34;3.65;;;0.77;;
52208;SDS011;38507;53.132;6.394;2022-07-23T13:46:00;3.83;;;0.65;;
52208;SDS011;38507;53.132;6.394;2022-07-23T13:48:26;5.38;;;0.60;;
52208;SDS011;38507;53.132;6.394;2022-07-23T13:50:51;2.05;;;0.60;;
52208;SDS011;38507;53.132;6.394;2022-07-23T13:53:18;2.65;;;0.65;;
52208;SDS011;38507;53.132;6.394;2022-07-23T13:55:47;3.08;;;0.60;;
52208;SDS011;38507;53.132;6.394;2022-07-23T13:58:14;2.75;;;0.73;;
52208;SDS011;38507;53.132;6.394;2022-07-23T14:00:44;2.75;;;0.68;;
52208;SDS011;38507;53.132;6.394;2022-07-23T14:03:12;2.33;;;0.80;;
52208;SDS011;38507;53.132;6.394;2022-07-23T14:05:38;2.78;;;0.60;;
52208;SDS011;38507;53.132;6.394;2022-07-23T14:08:04;2.33;;;0.70;;
52208;SDS011;38507;53.132;6.394;2022-07-23T14:10:30;4.38;;;0.60;;
52208;SDS011;38507;53.132;6.394;2022-07-23T14:12:56;2.13;;;0.60;;
52208;SDS011;38507;53.132;6.394;2022-07-23T14:15:23;2.35;;;0.90;;
52208;SDS011;38507;53.132;6.394;2022-07-23T14:17:51;3.22;;;0.75;;
52208;SDS011;38507;53.132;6.394;2022-07-23T14:20:17;2.60;;;0.63;;
52208;SDS011;38507;53.132;6.394;2022-07-23T14:22:43;3.75;;;0.82;;
52208;SDS011;38507;53.132;6.394;2022-07-23T14:25:09;1.15;;;0.60;;
52208;SDS011;38507;53.132;6.394;2022-07-23T14:27:36;5.88;;;0.90;;
52208;SDS011;38507;53.132;6.394;2022-07-23T14:30:05;1.85;;;0.73;;
52208;SDS011;38507;53.132;6.394;2022-07-23T14:32:32;3.22;;;0.63;;
52208;SDS011;38507;53.132;6.394;2022-07-23T14:34:57;3.20;;;0.77;;
52208;SDS011;38507;53.132;6.394;2022-07-23T14:37:23;3.97;;;0.75;;
52208;SDS011;38507;53.132;6.394;2022-07-23T14:39:50;2.00;;;0.80;;
52208;SDS011;38507;53.132;6.394;2022-07-23T14:42:16;3.00;;;0.90;;
52208;SDS011;38507;53.132;6.394;2022-07-23T14:44:42;3.47;;;0.65;;
52208;SDS011;38507;53.132;6.394;2022-07-23T14:47:07;2.50;;;0.73;;
52208;SDS011;38507;53.132;6.394;2022-07-23T14:49:33;13.88;;;1.50;;
52208;SDS011;38507;53.132;6.394;2022-07-23T14:51:59;4.00;;;0.80;;
52208;SDS011;38507;53.132;6.394;2022-07-23T14:54:26;2.13;;;0.63;;
52208;SDS011;38507;53.132;6.394;2022-07-23T14:56:54;3.25;;;0.70;;
52208;SDS011;38507;53.132;6.394;2022-07-23T14:59:20;4.38;;;0.70;;
52208;SDS011;38507;53.132;6.394;2022-07-23T15:01:46;2.83;;;0.57;;
52208;SDS011;38507;53.132;6.394;2022-07-23T15:04:12;2.33;;;0.70;;
52208;SDS011;38507;53.132;6.394;2022-07-23T15:06:38;3.92;;;0.70;;
52208;SDS011;38507;53.132;6.394;2022-07-23T15:09:04;1.65;;;0.52;;
52208;SDS011;38507;53.132;6.394;2022-07-23T15:11:31;2.20;;;0.80;;
52208;SDS011;38507;53.132;6.394;2022-07-23T15:13:59;2.63;;;0.68;;
52208;SDS011;38507;53.132;6.394;2022-07-23T15:16:26;3.75;;;0.60;;
52208;SDS011;38507;53.132;6.394;2022-07-23T15:18:52;3.80;;;0.73;;
52208;SDS011;38507;53.132;6.394;2022-07-23T15:21:18;4.18;;;0.75;;
52208;SDS011;38507;53.132;6.394;2022-07-23T15:23:43;1.50;;;0.60;;
52208;SDS011;38507;53.132;6.394;2022-07-23T15:26:09;1.10;;;0.50;;
52208;SDS011;38507;53.132;6.394;2022-07-23T15:28:35;1.23;;;0.60;;
52208;SDS011;38507;53.132;6.394;2022-07-23T15:31:01;3.40;;;0.70;;
52208;SDS011;38507;53.132;6.394;2022-07-23T15:33:27;1.30;;;0.60;;
52208;SDS011;38507;53.132;6.394;2022-07-23T15:35:53;3.70;;;0.75;;